Time;durP1;ratioP1;P1;durP2;ratioP2;P2;SDS_P1;SDS_P2;PMS_P1;PMS_P2;Temp;Humidity;BMP_temperature;BMP_pressure;BME280_temperature;BME280_humidity;BME280_pressure;Samples;Min_cycle;Max_cycle;Signal;HPM_P1;HPM_P2
2022/01/21 00:02:17;;;;;;;0.33;0.20;;;;;;;-1.58;100.00;99763.72;4894203;29;20198;-86
2022/01/21 00:04:44;;;;;;;0.47;0.23;;;;;;;-1.63;100.00;99755.41;4875564;29;20198;-92
2022/01/21 00:07:10;;;;;;;0.20;0.10;;;;;;;-1.59;100.00;99751.56;4905918;29;20500;-88
2022/01/21 00:09:37;;;;;;;0.20;0.20;;;;;;;-1.62;100.00;99756.25;4905745;29;20550;-87
2022/01/21 00:12:05;;;;;;;0.47;0.20;;;;;;;-1.66;100.00;99747.81;4911320;29;20601;-85
2022/01/21 00:14:31;;;;;;;0.97;0.30;;;;;;;-1.56;100.00;99747.81;4891062;29;20209;-87
2022/01/21 00:17:04;;;;;;;2.07;0.30;;;;;;;-1.52;100.00;99750.03;4894027;29;20213;-86
2022/01/21 00:19:38;;;;;;;1.67;0.30;;;;;;;-1.55;100.00;99737.19;4911447;29;20238;-84
2022/01/21 00:30:28;;;;;;;2.03;0.50;;;;;;;-1.77;100.00;99746.16;4894946;29;20246;-86
2022/01/21 00:32:58;;;;;;;2.50;0.67;;;;;;;-1.77;100.00;99741.88;4908493;29;20210;-94
2022/01/21 00:35:26;;;;;;;1.83;0.60;;;;;;;-1.90;100.00;99736.88;4893633;29;20281;-90
2022/01/21 00:37:53;;;;;;;2.60;0.60;;;;;;;-1.91;100.00;99746.56;4910755;29;20194;-87
2022/01/21 00:40:23;;;;;;;3.70;1.03;;;;;;;-2.01;100.00;99747.53;4897896;29;20210;-90
2022/01/21 00:43:15;;;;;;;1.63;0.80;;;;;;;-1.91;100.00;99740.47;4912590;29;20211;-91
2022/01/21 00:45:43;;;;;;;1.53;0.60;;;;;;;-1.87;100.00;99749.75;4884831;29;20218;-85
2022/01/21 00:48:10;;;;;;;3.37;0.60;;;;;;;-1.92;100.00;99733.59;4913524;29;20226;-85
2022/01/21 00:50:37;;;;;;;3.20;0.77;;;;;;;-1.80;100.00;99762.19;4898011;29;20186;-88
2022/01/21 00:53:04;;;;;;;3.77;0.70;;;;;;;-1.72;100.00;99769.38;4898701;29;20205;-92
2022/01/21 00:55:34;;;;;;;1.33;0.50;;;;;;;-1.71;100.00;99760.53;4898822;29;20250;-86
2022/01/21 00:58:07;;;;;;;1.00;0.60;;;;;;;-1.67;100.00;99764.53;4914289;29;20312;-88
2022/01/21 01:00:36;;;;;;;1.93;0.70;;;;;;;-1.46;100.00;99782.81;4912213;29;20202;-90
2022/01/21 01:03:04;;;;;;;4.57;0.90;;;;;;;-1.44;100.00;99799.25;4914758;29;20190;-90
2022/01/21 01:05:31;;;;;;;2.60;0.70;;;;;;;-1.33;100.00;99801.72;4897391;29;20194;-84
2022/01/21 01:08:03;;;;;;;2.50;0.43;;;;;;;-1.28;100.00;99817.09;4899958;29;20194;-85
2022/01/21 01:21:49;;;;;;;3.17;0.80;;;;;;;-1.55;100.00;99849.31;4936793;23;20258;-88
2022/01/21 01:30:07;;;;;;;0.77;0.40;;;;;;;-1.93;100.00;99868.47;4929430;29;20194;-86
2022/01/21 01:32:36;;;;;;;2.90;0.70;;;;;;;-2.05;100.00;99866.94;4895539;29;20182;-87
2022/01/21 01:35:05;;;;;;;1.33;0.43;;;;;;;-2.11;100.00;99863.03;4911057;29;20278;-86
2022/01/21 01:50:53;;;;;;;3.37;0.90;;;;;;;-2.58;100.00;99866.28;4927399;29;20194;-86
2022/01/21 01:53:30;;;;;;;1.63;0.60;;;;;;;-2.62;100.00;99855.22;4897514;29;20634;-86
2022/01/21 01:56:00;;;;;;;2.97;0.80;;;;;;;-2.74;100.00;99845.75;4930459;29;20614;-84
2022/01/21 01:58:35;;;;;;;3.10;0.87;;;;;;;-2.62;100.00;99865.72;4898601;29;20300;-84
2022/01/21 02:01:05;;;;;;;2.50;0.60;;;;;;;-2.79;100.00;99871.53;4930734;29;20182;-88
2022/01/21 02:03:36;;;;;;;2.43;0.70;;;;;;;-2.58;100.00;99871.53;4943772;29;20178;-86
2022/01/21 02:06:03;;;;;;;3.77;0.77;;;;;;;-2.58;100.00;99851.38;4929446;29;20222;-88
2022/01/21 02:08:30;;;;;;;1.07;0.50;;;;;;;-2.47;100.00;99858.34;4910821;29;20191;-86
2022/01/21 02:10:58;;;;;;;4.17;0.90;;;;;;;-2.43;100.00;99870.22;4910094;29;20205;-93
2022/01/21 02:13:30;;;;;;;1.63;0.40;;;;;;;-2.38;100.00;99860.97;4939444;29;20217;-83
2022/01/21 02:16:05;;;;;;;3.63;0.87;;;;;;;-2.22;100.00;99892.00;4939928;29;20179;-88
2022/01/21 02:21:38;;;;;;;1.63;0.60;;;;;;;-2.28;100.00;99879.41;4921691;29;20277;-86
2022/01/21 02:24:22;;;;;;;1.27;0.50;;;;;;;-2.25;100.00;99873.91;4926656;29;20206;-84
2022/01/21 02:26:52;;;;;;;0.70;0.50;;;;;;;-2.01;100.00;99897.22;4928750;29;20174;-84
2022/01/21 02:29:37;;;;;;;1.93;0.70;;;;;;;-2.03;100.00;99901.75;4911029;29;20178;-92
2022/01/21 02:32:07;;;;;;;1.67;0.50;;;;;;;-1.96;100.00;99905.50;4897532;29;20205;-84
2022/01/21 02:34:35;;;;;;;1.13;0.60;;;;;;;-1.79;100.00;99913.56;4895091;29;20258;-89
2022/01/21 02:37:04;;;;;;;2.60;0.67;;;;;;;-1.86;100.00;99915.06;4892669;29;20487;-90
2022/01/21 02:39:33;;;;;;;2.30;0.60;;;;;;;-1.84;100.00;99907.91;4911370;29;20214;-90
2022/01/21 02:42:00;;;;;;;2.57;0.83;;;;;;;-1.75;100.00;99905.41;4910972;29;20245;-91
2022/01/21 02:44:31;;;;;;;4.03;0.60;;;;;;;-1.68;100.00;99928.38;4907143;29;20250;-83
2022/01/21 02:47:00;;;;;;;1.30;0.50;;;;;;;-1.69;100.00;99929.38;4891995;29;20186;-85
2022/01/21 02:49:30;;;;;;;2.73;0.67;;;;;;;-1.65;100.00;99922.03;4910673;29;20190;-85
2022/01/21 02:52:01;;;;;;;1.73;0.60;;;;;;;-1.77;100.00;99925.75;4891955;29;20198;-85
2022/01/21 02:54:34;;;;;;;3.03;0.83;;;;;;;-1.66;100.00;99928.25;4923609;29;20190;-84
2022/01/21 02:57:04;;;;;;;2.20;0.60;;;;;;;-1.80;100.00;99917.16;4912053;29;20202;-85
2022/01/21 02:59:32;;;;;;;2.30;0.70;;;;;;;-1.78;100.00;99917.03;4909780;29;20217;-87
2022/01/21 03:01:59;;;;;;;2.63;0.60;;;;;;;-1.85;100.00;99915.91;4910946;29;20570;-85
2022/01/21 03:04:36;;;;;;;2.37;0.43;;;;;;;-1.80;100.00;99925.03;4909767;29;20223;-84
2022/01/21 03:07:04;;;;;;;2.20;0.67;;;;;;;-1.88;100.00;99937.19;4927362;29;20249;-84
2022/01/21 03:09:35;;;;;;;1.60;0.60;;;;;;;-1.86;100.00;99945.75;4895223;29;20198;-85
2022/01/21 03:12:02;;;;;;;1.93;0.63;;;;;;;-1.88;100.00;99948.53;4908308;29;20229;-91
2022/01/21 03:14:29;;;;;;;1.93;0.80;;;;;;;-1.83;100.00;99953.38;4895916;29;20198;-88
2022/01/21 03:16:56;;;;;;;3.57;0.70;;;;;;;-1.74;100.00;99951.75;4909372;29;20186;-85
2022/01/21 03:19:24;;;;;;;2.43;0.53;;;;;;;-1.86;100.00;99954.47;4910613;29;20705;-87
2022/01/21 03:21:51;;;;;;;4.57;0.80;;;;;;;-1.86;100.00;99956.25;4926546;29;20262;-87
2022/01/21 03:24:19;;;;;;;2.10;0.63;;;;;;;-1.81;100.00;99951.44;4908553;29;20289;-83
2022/01/21 03:26:50;;;;;;;2.40;0.90;;;;;;;-1.96;100.00;99929.16;4894765;29;20198;-91
2022/01/21 03:29:17;;;;;;;1.60;0.67;;;;;;;-1.77;100.00;99943.16;4911110;29;20524;-83
2022/01/21 03:31:43;;;;;;;2.23;0.73;;;;;;;-1.92;100.00;99944.50;4913540;29;20278;-90
2022/01/21 03:34:12;;;;;;;2.07;0.70;;;;;;;-1.88;100.00;99943.28;4914080;29;20222;-84
2022/01/21 03:36:40;;;;;;;3.13;0.80;;;;;;;-1.72;100.00;99960.31;4928786;29;20490;-86
2022/01/21 03:39:07;;;;;;;2.53;0.67;;;;;;;-1.79;100.00;99965.28;4898800;29;20194;-95
2022/01/21 03:41:34;;;;;;;1.73;0.73;;;;;;;-1.81;100.00;99968.03;4931780;29;20653;-83
2022/01/21 03:44:03;;;;;;;1.40;0.80;;;;;;;-1.67;100.00;99987.00;4898371;29;20198;-95
2022/01/21 03:46:31;;;;;;;1.43;0.63;;;;;;;-1.68;100.00;99995.88;4897556;29;20209;-86
2022/01/21 03:48:57;;;;;;;2.83;0.77;;;;;;;-1.72;100.00;99984.78;4898823;29;20194;-87
2022/01/21 03:51:25;;;;;;;1.70;0.60;;;;;;;-1.82;100.00;99976.88;4883249;29;20198;-86
2022/01/21 03:53:52;;;;;;;2.57;0.80;;;;;;;-1.73;100.00;99998.91;4896838;29;20254;-92
2022/01/21 03:56:24;;;;;;;2.87;0.73;;;;;;;-1.77;100.00;100000.09;4913700;29;20205;-84
2022/01/21 03:58:54;;;;;;;3.80;0.80;;;;;;;-1.67;100.00;100021.16;4896248;29;20201;-89
2022/01/21 04:01:23;;;;;;;2.50;0.90;;;;;;;-1.88;100.00;100015.97;4897497;29;20222;-85
2022/01/21 04:03:51;;;;;;;2.87;1.00;;;;;;;-1.75;100.00;100024.47;4911188;29;20206;-88
2022/01/21 04:06:20;;;;;;;3.37;0.90;;;;;;;-1.89;100.00;100022.19;4942504;29;20614;-87
2022/01/21 04:08:48;;;;;;;2.80;0.80;;;;;;;-1.67;100.00;100029.88;4894241;29;20576;-85
2022/01/21 04:11:15;;;;;;;2.90;0.80;;;;;;;-1.61;100.00;100033.78;4925595;29;20206;-94
2022/01/21 04:13:45;;;;;;;2.37;0.80;;;;;;;-1.58;100.00;100057.16;4910890;29;20194;-93
2022/01/21 04:16:18;;;;;;;3.00;0.83;;;;;;;-1.74;100.00;100051.56;4926957;29;20194;-93
2022/01/21 04:18:49;;;;;;;2.83;0.87;;;;;;;-1.72;100.00;100054.88;4912181;29;20538;-87
2022/01/21 04:21:15;;;;;;;1.60;0.73;;;;;;;-1.73;100.00;100061.13;4927119;29;20635;-87
2022/01/21 04:23:42;;;;;;;4.33;1.00;;;;;;;-1.74;100.00;100048.94;4911495;29;20203;-94
2022/01/21 04:26:16;;;;;;;2.23;0.80;;;;;;;-1.86;100.00;100045.53;4911514;29;20289;-83
2022/01/21 04:28:43;;;;;;;2.80;1.10;;;;;;;-1.72;100.00;100055.72;4897147;29;20238;-94
2022/01/21 04:31:11;;;;;;;3.73;0.97;;;;;;;-1.68;99.63;100062.38;4910448;29;20281;-94
2022/01/21 04:33:45;;;;;;;6.00;1.33;;;;;;;-1.76;100.00;100075.31;4924111;29;20201;-88
2022/01/21 04:36:13;;;;;;;4.10;0.97;;;;;;;-1.83;100.00;100066.31;4908513;29;20198;-94
2022/01/21 04:38:40;;;;;;;2.27;1.00;;;;;;;-1.87;100.00;100064.91;4895176;29;20222;-88
2022/01/21 04:49:14;;;;;;;3.97;1.07;;;;;;;-1.88;100.00;100098.22;4896727;29;20202;-91
2022/01/21 04:52:01;;;;;;;3.10;1.17;;;;;;;-2.05;100.00;100077.78;4893422;29;20198;-91
2022/01/21 04:54:38;;;;;;;4.27;1.10;;;;;;;-2.07;100.00;100094.63;4923296;29;20197;-90
2022/01/21 04:57:05;;;;;;;3.77;1.00;;;;;;;-2.13;100.00;100095.13;4923817;29;20206;-93
2022/01/21 04:59:32;;;;;;;4.10;0.90;;;;;;;-1.96;100.00;100094.59;4908258;29;20517;-93
2022/01/21 05:02:01;;;;;;;5.40;1.23;;;;;;;-1.79;100.00;100123.72;4922624;29;20222;-94
2022/01/21 05:04:29;;;;;;;3.17;0.93;;;;;;;-1.90;100.00;100118.53;4922279;29;20207;-88
2022/01/21 05:07:01;;;;;;;4.07;1.10;;;;;;;-2.08;100.00;100111.34;4907000;29;20250;-92
2022/01/21 05:09:32;;;;;;;4.17;1.10;;;;;;;-2.06;100.00;100123.41;4890232;29;20512;-93
2022/01/21 05:12:01;;;;;;;5.20;1.10;;;;;;;-1.93;100.00;100124.03;4906574;29;20202;-94
2022/01/21 05:14:51;;;;;;;2.30;1.00;;;;;;;-2.09;100.00;100110.50;4908883;29;20257;-86
2022/01/21 05:17:25;;;;;;;2.93;1.10;;;;;;;-2.14;100.00;100110.06;4927146;29;20202;-91
2022/01/21 05:19:52;;;;;;;4.10;0.90;;;;;;;-2.11;100.00;100122.94;4906166;29;20218;-89
2022/01/21 05:22:45;;;;;;;3.57;0.80;;;;;;;-2.32;99.84;100111.56;4921990;29;20606;-92
2022/01/21 05:25:17;;;;;;;2.90;1.23;;;;;;;-2.30;100.00;100109.66;4908018;29;20202;-90
2022/01/21 05:27:50;;;;;;;2.00;1.10;;;;;;;-2.20;99.93;100126.34;4906657;29;20193;-84
2022/01/21 05:30:17;;;;;;;3.20;1.08;;;;;;;-2.21;97.20;100127.28;4909320;29;20747;-86
2022/01/21 05:32:54;;;;;;;4.33;1.00;;;;;;;-2.33;99.23;100107.28;4897088;29;20189;-88
2022/01/21 05:35:40;;;;;;;1.93;0.67;;;;;;;-2.22;96.31;100115.94;4898910;29;20214;-89
2022/01/21 05:38:33;;;;;;;3.43;0.90;;;;;;;-2.32;100.00;100117.66;4914253;29;20495;-92
2022/01/21 05:41:27;;;;;;;2.73;0.70;;;;;;;-2.35;99.29;100123.16;4928567;29;20289;-93
2022/01/21 05:47:14;;;;;;;5.10;1.17;;;;;;;-2.47;100.00;100115.47;4913583;29;20194;-90
2022/01/21 05:50:04;;;;;;;3.20;0.90;;;;;;;-2.68;97.61;100102.28;4916482;29;20190;-86
2022/01/21 05:52:50;;;;;;;4.77;1.10;;;;;;;-2.52;98.46;100115.81;4922276;29;20269;-95
2022/01/21 05:55:42;;;;;;;4.23;0.90;;;;;;;-2.52;98.19;100131.56;4891867;29;20201;-93
2022/01/21 05:58:29;;;;;;;4.10;1.00;;;;;;;-2.44;97.29;100129.19;4922870;29;20205;-90
2022/01/21 06:00:56;;;;;;;1.97;0.80;;;;;;;-2.52;97.46;100113.19;4889495;29;20665;-96
2022/01/21 06:03:24;;;;;;;4.93;1.30;;;;;;;-2.51;99.39;100124.53;4905826;29;20289;-86
2022/01/21 06:05:52;;;;;;;4.10;1.20;;;;;;;-2.71;98.78;100129.59;4889815;29;20212;-90
2022/01/21 06:08:19;;;;;;;3.10;0.90;;;;;;;-2.71;97.46;100111.22;4920408;29;20194;-93
2022/01/21 06:10:46;;;;;;;1.80;0.70;;;;;;;-2.58;95.31;100136.50;4920070;29;20316;-92
2022/01/21 06:13:16;;;;;;;2.10;0.80;;;;;;;-2.67;97.51;100115.28;4889490;29;20218;-95
2022/01/21 06:15:43;;;;;;;1.57;0.70;;;;;;;-2.69;96.06;100125.06;4889429;29;20206;-85
2022/01/21 06:18:13;;;;;;;5.07;1.10;;;;;;;-2.70;96.00;100123.41;4919866;29;20205;-89
2022/01/21 06:20:39;;;;;;;3.37;0.83;;;;;;;-2.74;96.72;100135.09;4920736;29;20293;-95
2022/01/21 06:23:06;;;;;;;3.50;0.90;;;;;;;-2.74;97.18;100129.00;4888463;29;20245;-88
2022/01/21 06:25:33;;;;;;;2.40;0.93;;;;;;;-2.80;96.22;100137.38;4919726;29;20281;-91
2022/01/21 06:28:00;;;;;;;6.57;1.17;;;;;;;-2.80;95.03;100145.25;4900085;29;20554;-92
2022/01/21 06:30:27;;;;;;;2.90;0.80;;;;;;;-2.74;95.37;100148.22;4884874;29;20194;-86
2022/01/21 06:32:53;;;;;;;1.60;0.63;;;;;;;-2.63;92.03;100178.84;4900242;29;20209;-88
2022/01/21 06:35:20;;;;;;;2.47;0.90;;;;;;;-2.56;90.75;100173.91;4885389;29;20278;-93
2022/01/21 06:37:47;;;;;;;1.73;0.70;;;;;;;-2.57;90.44;100182.75;4883994;29;20215;-87
2022/01/21 06:40:17;;;;;;;2.67;0.80;;;;;;;-2.64;92.02;100178.94;4884480;29;20222;-87
2022/01/21 06:42:44;;;;;;;3.33;0.90;;;;;;;-2.73;90.22;100164.78;4901304;29;20191;-94
2022/01/21 06:45:11;;;;;;;1.10;0.53;;;;;;;-2.75;89.31;100185.03;4884279;29;20293;-88
2022/01/21 06:47:37;;;;;;;2.77;0.80;;;;;;;-2.72;88.26;100184.81;4871029;29;20224;-89
2022/01/21 06:50:05;;;;;;;3.50;0.73;;;;;;;-2.84;87.26;100191.00;4885974;29;20195;-94
2022/01/21 06:52:32;;;;;;;5.10;0.80;;;;;;;-2.79;89.09;100199.34;4886359;29;20195;-88
2022/01/21 06:54:59;;;;;;;2.67;0.80;;;;;;;-2.87;86.42;100191.25;4885302;29;20620;-93
2022/01/21 06:57:27;;;;;;;5.17;1.07;;;;;;;-2.82;90.42;100195.19;4899200;29;20197;-94
2022/01/21 06:59:56;;;;;;;5.67;1.00;;;;;;;-2.59;86.58;100196.00;4901852;29;20571;-89
2022/01/21 07:02:24;;;;;;;2.30;0.80;;;;;;;-2.66;85.10;100200.88;4902058;29;20498;-91
2022/01/21 07:04:51;;;;;;;4.40;0.77;;;;;;;-2.70;86.49;100207.31;4887103;29;20199;-92
2022/01/21 07:07:20;;;;;;;3.20;0.70;;;;;;;-2.68;86.46;100197.56;4887867;29;20202;-92
2022/01/21 07:09:47;;;;;;;2.07;0.97;;;;;;;-2.68;87.91;100200.19;4919968;29;20594;-86
2022/01/21 07:12:15;;;;;;;1.13;0.60;;;;;;;-2.51;84.05;100222.44;4888039;29;20283;-92
2022/01/21 07:14:42;;;;;;;4.80;0.90;;;;;;;-2.48;85.57;100229.25;4905505;29;20190;-92
2022/01/21 07:17:08;;;;;;;1.60;0.60;;;;;;;-2.57;84.57;100211.63;4891012;29;20197;-93
2022/01/21 07:19:35;;;;;;;2.90;0.70;;;;;;;-2.54;81.86;100216.63;4890234;29;20205;-91
2022/01/21 07:22:04;;;;;;;3.80;0.93;;;;;;;-2.61;86.31;100218.06;4889407;29;20265;-91
2022/01/21 07:24:30;;;;;;;3.37;1.00;;;;;;;-2.64;86.62;100213.03;4903475;29;20195;-94
2022/01/21 07:26:57;;;;;;;3.30;0.70;;;;;;;-2.56;85.70;100218.50;4887925;29;20209;-93
2022/01/21 07:29:24;;;;;;;2.67;1.10;;;;;;;-2.63;84.42;100220.81;4903258;29;20201;-90
2022/01/21 07:31:54;;;;;;;3.40;0.80;;;;;;;-2.57;84.82;100214.25;4904086;29;20183;-90
2022/01/21 07:34:22;;;;;;;1.63;0.80;;;;;;;-2.49;82.90;100224.97;4907384;29;20195;-90
2022/01/21 07:36:50;;;;;;;2.27;1.03;;;;;;;-2.49;84.26;100236.28;4906133;29;20293;-93
2022/01/21 07:39:19;;;;;;;2.33;0.60;;;;;;;-2.44;84.74;100239.38;4905239;29;20222;-94
2022/01/21 07:41:47;;;;;;;1.30;0.60;;;;;;;-2.50;82.91;100205.75;4899089;29;20249;-93
2022/01/21 07:44:15;;;;;;;4.60;0.70;;;;;;;-2.33;87.21;100239.34;4908066;29;20198;-90
2022/01/21 07:46:43;;;;;;;2.10;0.93;;;;;;;-2.41;82.60;100231.25;4906319;29;20299;-91
2022/01/21 07:49:11;;;;;;;2.37;0.60;;;;;;;-2.34;85.74;100216.69;4912060;29;20666;-91
2022/01/21 07:51:38;;;;;;;3.47;0.90;;;;;;;-2.49;85.54;100231.03;4890687;29;20203;-88
2022/01/21 07:54:05;;;;;;;2.27;0.70;;;;;;;-2.37;86.63;100208.22;4888896;29;20202;-91
2022/01/21 07:56:35;;;;;;;3.00;0.80;;;;;;;-2.28;83.87;100223.22;4903132;29;20233;-92
2022/01/21 07:59:04;;;;;;;4.57;1.10;;;;;;;-2.24;84.10;100193.97;4905387;29;20206;-92
2022/01/21 08:01:31;;;;;;;2.57;0.80;;;;;;;-2.10;82.49;100234.06;4904845;29;20229;-93
2022/01/21 08:03:58;;;;;;;4.03;0.97;;;;;;;-2.16;85.79;100217.00;4904793;29;20199;-88
2022/01/21 08:06:26;;;;;;;4.33;0.90;;;;;;;-2.26;81.53;100219.53;4905853;29;20201;-89
2022/01/21 08:08:54;;;;;;;3.17;0.80;;;;;;;-2.17;83.18;100225.81;4905316;29;20227;-95
2022/01/21 08:11:21;;;;;;;2.63;0.80;;;;;;;-2.29;84.42;100232.06;4905207;29;20195;-91
2022/01/21 08:13:48;;;;;;;2.43;0.93;;;;;;;-2.17;77.62;100233.69;4902813;29;20201;-92
2022/01/21 08:16:15;;;;;;;2.13;0.90;;;;;;;-2.16;83.40;100242.41;4918650;29;20228;-89
2022/01/21 08:18:43;;;;;;;2.97;0.97;;;;;;;-2.15;80.43;100231.81;4918021;29;20282;-88
2022/01/21 08:21:10;;;;;;;2.83;1.47;;;;;;;-1.98;80.84;100261.94;4889174;29;20266;-91
2022/01/21 08:23:37;;;;;;;3.10;1.00;;;;;;;-2.04;78.77;100238.78;4903472;29;20235;-90
2022/01/21 08:26:03;;;;;;;3.50;0.80;;;;;;;-1.93;78.56;100230.88;4886484;29;20248;-87
2022/01/21 08:28:30;;;;;;;2.30;0.73;;;;;;;-1.92;76.92;100232.56;4920248;29;20197;-92
2022/01/21 08:30:57;;;;;;;4.97;1.30;;;;;;;-1.89;75.09;100240.16;4902693;29;20237;-91
2022/01/21 08:33:24;;;;;;;2.17;0.60;;;;;;;-1.73;77.26;100235.34;4903084;29;20214;-91
2022/01/21 08:35:51;;;;;;;2.67;0.60;;;;;;;-1.48;73.35;100250.72;4902997;29;20199;-94
2022/01/21 08:38:21;;;;;;;1.47;0.80;;;;;;;-1.46;75.53;100240.94;4903711;29;20202;-94
2022/01/21 08:40:48;;;;;;;3.23;0.73;;;;;;;-1.63;75.71;100251.97;4900887;29;20313;-90
2022/01/21 08:43:15;;;;;;;3.67;0.80;;;;;;;-1.58;75.19;100241.94;4903079;29;20278;-91
2022/01/21 08:45:42;;;;;;;2.23;0.70;;;;;;;-1.52;73.17;100261.63;4901445;29;20618;-89
2022/01/21 08:48:10;;;;;;;3.60;0.60;;;;;;;-1.46;74.45;100259.31;4904935;29;20220;-88
2022/01/21 08:50:37;;;;;;;2.90;0.70;;;;;;;-1.48;74.99;100260.41;4909361;29;20203;-87
2022/01/21 08:53:35;;;;;;;3.73;0.80;;;;;;;-1.41;73.58;100251.88;4905441;29;20203;-93
2022/01/21 08:55:54;;;;;;;2.47;0.60;;;;;;;-1.42;71.74;100266.00;4901094;29;20674;-90
2022/01/21 08:58:21;;;;;;;1.70;0.60;;;;;;;-1.48;70.30;100263.03;4905832;29;20670;-94
2022/01/21 09:00:48;;;;;;;1.23;0.57;;;;;;;-1.45;71.44;100249.66;4902285;29;20238;-93
2022/01/21 09:03:15;;;;;;;2.83;0.63;;;;;;;-1.57;71.90;100243.59;4887399;29;20203;-94
2022/01/21 09:05:48;;;;;;;1.37;0.50;;;;;;;-1.63;73.64;100249.34;4904650;29;20202;-87
2022/01/21 09:08:15;;;;;;;3.57;0.53;;;;;;;-1.51;67.57;100240.47;4905844;29;20334;-94
2022/01/21 09:10:42;;;;;;;3.73;0.90;;;;;;;-1.46;68.57;100247.97;4920159;29;20305;-96
2022/01/21 09:13:10;;;;;;;2.33;0.73;;;;;;;-1.37;70.20;100258.56;4906845;29;20206;-92
2022/01/21 09:15:37;;;;;;;3.27;0.83;;;;;;;-1.22;71.45;100247.72;4888738;29;20186;-94
2022/01/21 09:18:05;;;;;;;3.13;0.90;;;;;;;-1.15;71.73;100268.09;4890180;29;20194;-95
2022/01/21 09:20:36;;;;;;;2.70;0.70;;;;;;;-1.13;68.14;100257.44;4895694;29;20217;-95
2022/01/21 09:23:04;;;;;;;2.53;0.90;;;;;;;-0.92;68.14;100276.66;4918778;29;20272;-94
2022/01/21 09:25:32;;;;;;;2.10;0.60;;;;;;;-0.94;66.47;100261.03;4919906;29;20202;-93
2022/01/21 09:28:01;;;;;;;2.77;0.60;;;;;;;-0.77;68.18;100264.81;4923719;29;20261;-91
2022/01/21 09:30:29;;;;;;;5.50;0.80;;;;;;;-0.73;67.21;100252.22;4904743;29;20187;-92
2022/01/21 09:32:56;;;;;;;4.80;0.80;;;;;;;-0.82;67.37;100251.22;4892507;29;20241;-92
2022/01/21 09:35:24;;;;;;;3.17;0.70;;;;;;;-0.70;66.46;100271.22;4930137;29;20206;-94
2022/01/21 09:37:50;;;;;;;1.70;0.70;;;;;;;-0.64;63.86;100267.22;4907830;29;20249;-90
2022/01/21 09:40:43;;;;;;;2.87;0.80;;;;;;;-0.62;66.48;100267.94;4916704;29;20503;-89
2022/01/21 09:43:10;;;;;;;2.07;0.60;;;;;;;-0.57;65.26;100268.38;4921124;29;20202;-94
2022/01/21 09:45:39;;;;;;;1.83;0.70;;;;;;;-0.57;66.62;100277.13;4923052;29;20209;-90
2022/01/21 09:48:06;;;;;;;3.17;0.77;;;;;;;-0.56;64.18;100272.69;4915884;29;20213;-85
2022/01/21 09:50:34;;;;;;;1.57;0.80;;;;;;;-0.50;65.54;100274.75;4922093;29;20191;-84
2022/01/21 09:53:06;;;;;;;1.63;0.67;;;;;;;-0.54;68.20;100270.72;4917157;29;20203;-83
2022/01/21 09:55:35;;;;;;;2.63;1.00;;;;;;;-0.45;66.89;100281.28;4924418;29;20275;-84
2022/01/21 09:58:02;;;;;;;1.50;0.73;;;;;;;-0.36;66.26;100268.28;4939209;23;20233;-83
2022/01/21 10:00:30;;;;;;;2.07;0.70;;;;;;;-0.32;65.78;100272.31;4934292;23;20283;-85
2022/01/21 10:03:02;;;;;;;2.30;0.60;;;;;;;-0.32;66.47;100262.63;4912327;29;20198;-84
2022/01/21 10:09:00;;;;;;;4.07;0.80;;;;;;;-0.18;65.34;100275.41;1269084;27;21380;-84
2022/01/21 10:11:28;;;;;;;1.53;0.60;;;;;;;-0.05;64.57;100270.72;4918446;29;20223;-83
2022/01/21 10:13:55;;;;;;;4.27;0.67;;;;;;;0.03;65.52;100282.38;4915846;23;20216;-82
2022/01/21 10:16:22;;;;;;;2.30;0.70;;;;;;;-0.07;63.18;100277.94;4925562;23;20234;-83
2022/01/21 10:19:11;;;;;;;2.60;0.90;;;;;;;0.07;65.55;100274.06;4903857;29;20187;-84
2022/01/21 10:21:44;;;;;;;2.83;0.70;;;;;;;0.15;62.48;100265.47;4936360;29;20190;-83
2022/01/21 10:24:29;;;;;;;1.13;0.50;;;;;;;0.17;61.29;100259.09;4934030;23;20246;-83
2022/01/21 10:26:57;;;;;;;1.73;0.60;;;;;;;0.27;60.43;100251.22;4915686;29;20229;-85
2022/01/21 10:29:41;;;;;;;2.83;0.80;;;;;;;0.24;60.97;100259.38;4883196;29;20187;-83
2022/01/21 10:32:09;;;;;;;2.00;0.60;;;;;;;0.16;63.16;100249.53;4882127;29;20191;-83
2022/01/21 10:34:35;;;;;;;1.07;0.47;;;;;;;0.29;61.43;100255.34;4884963;29;20214;-84
2022/01/21 10:37:07;;;;;;;3.03;0.97;;;;;;;0.30;64.14;100249.13;4900552;29;20195;-83
2022/01/21 10:40:07;;;;;;;3.20;0.67;;;;;;;0.40;59.36;100243.84;4917513;29;20286;-83
2022/01/21 10:42:36;;;;;;;1.33;0.50;;;;;;;0.40;63.53;100239.41;4885995;29;20225;-83
2022/01/21 10:45:07;;;;;;;4.50;0.73;;;;;;;0.47;60.34;100230.94;4883481;29;20187;-83
2022/01/21 10:47:41;;;;;;;2.30;0.70;;;;;;;0.60;61.31;100249.94;4895907;29;20262;-82
2022/01/21 10:50:14;;;;;;;2.77;0.90;;;;;;;0.60;60.97;100234.13;4909803;23;20245;-83
2022/01/21 10:52:51;;;;;;;3.17;0.60;;;;;;;0.57;61.60;100237.84;4930510;29;20617;-83
2022/01/21 10:55:38;;;;;;;3.13;0.90;;;;;;;0.62;60.26;100246.19;4901665;29;20605;-83
2022/01/21 10:58:25;;;;;;;1.90;0.67;;;;;;;0.63;60.23;100229.38;4935670;29;20182;-83
2022/01/21 11:01:04;;;;;;;3.23;0.70;;;;;;;0.55;60.13;100220.53;4916918;29;20194;-84
2022/01/21 11:03:33;;;;;;;2.20;0.60;;;;;;;0.68;60.79;100221.03;4899707;29;20226;-84
2022/01/21 11:06:15;;;;;;;1.50;0.70;;;;;;;0.64;62.57;100217.03;4899103;29;20186;-85
2022/01/21 11:08:42;;;;;;;2.37;0.70;;;;;;;0.53;62.75;100188.19;4915922;29;20187;-83
2022/01/21 11:11:12;;;;;;;1.93;0.70;;;;;;;0.58;60.53;100207.03;4903471;29;20582;-83
2022/01/21 11:13:49;;;;;;;2.93;0.83;;;;;;;0.67;62.82;100209.66;4941041;23;20241;-83
2022/01/21 11:16:45;;;;;;;3.47;1.00;;;;;;;0.75;63.55;100201.84;4915353;23;20249;-83
2022/01/21 11:19:36;;;;;;;4.60;1.07;;;;;;;0.77;63.34;100205.19;4871581;29;20190;-84
2022/01/21 11:22:05;;;;;;;2.97;0.80;;;;;;;0.82;64.29;100217.97;4887147;29;20215;-83
2022/01/21 11:24:34;;;;;;;1.90;1.03;;;;;;;0.75;60.40;100207.13;4892377;23;20271;-83
2022/01/21 11:27:20;;;;;;;4.73;0.67;;;;;;;0.80;64.55;100209.34;4906368;23;20245;-84
2022/01/21 11:29:47;;;;;;;4.23;0.90;;;;;;;0.91;62.56;100198.63;4885641;29;20199;-84
2022/01/21 11:32:16;;;;;;;3.80;0.70;;;;;;;0.95;62.44;100194.72;4901406;29;20231;-84
2022/01/21 11:34:49;;;;;;;2.80;0.90;;;;;;;0.90;62.50;100191.69;4902633;29;20178;-84
2022/01/21 11:37:49;;;;;;;2.97;1.40;;;;;;;0.89;65.04;100190.00;4913683;23;20213;-83
2022/01/21 11:40:33;;;;;;;2.93;0.83;;;;;;;0.89;63.11;100201.41;4848089;29;20219;-81
2022/01/21 11:43:02;;;;;;;2.20;1.03;;;;;;;0.82;64.81;100183.66;4825577;29;20212;-81
2022/01/21 11:51:22;;;;;;;1.83;0.87;;;;;;;1.00;62.77;100158.19;4826119;29;20273;-80
2022/01/21 11:53:56;;;;;;;2.50;0.90;;;;;;;1.08;64.88;100171.47;4828947;29;20204;-81
2022/01/21 11:56:29;;;;;;;4.43;0.77;;;;;;;1.09;63.41;100180.22;4829235;29;20205;-81
2022/01/21 11:59:26;;;;;;;2.70;0.80;;;;;;;1.04;63.48;100166.63;4845982;29;20307;-81
2022/01/21 12:01:54;;;;;;;3.00;0.80;;;;;;;1.03;62.55;100167.59;4829340;29;20220;-81
2022/01/21 12:04:30;;;;;;;2.57;0.80;;;;;;;0.95;63.24;100173.63;4844635;29;20203;-81
2022/01/21 12:06:58;;;;;;;1.47;0.70;;;;;;;0.93;60.17;100156.28;4844614;29;20570;-81
2022/01/21 12:09:57;;;;;;;1.83;0.67;;;;;;;0.99;60.38;100166.25;4844764;29;20497;-81
2022/01/21 12:12:26;;;;;;;2.40;0.83;;;;;;;1.05;61.38;100166.50;4829381;29;20193;-81
2022/01/21 12:15:02;;;;;;;2.77;1.00;;;;;;;1.09;62.13;100164.38;4828976;29;20500;-81
2022/01/21 12:17:49;;;;;;;2.13;0.77;;;;;;;1.17;57.95;100173.22;4844472;29;20268;-81
2022/01/21 12:20:16;;;;;;;3.57;1.00;;;;;;;1.13;58.50;100163.13;4848724;29;20205;-80
2022/01/21 12:22:43;;;;;;;2.00;0.80;;;;;;;1.17;59.05;100169.75;4845065;29;20235;-80
2022/01/21 12:25:13;;;;;;;2.90;1.00;;;;;;;1.25;58.94;100164.59;4828644;29;20205;-81
2022/01/21 12:28:15;;;;;;;2.57;1.00;;;;;;;1.26;58.99;100171.56;4829179;29;20216;-81
2022/01/21 12:30:52;;;;;;;2.73;0.97;;;;;;;1.26;61.41;100168.91;4838208;29;20227;-80
2022/01/21 12:33:58;;;;;;;2.50;0.80;;;;;;;1.21;57.99;100165.88;4842702;29;20509;-81
2022/01/21 12:36:30;;;;;;;1.83;0.70;;;;;;;1.25;57.45;100159.31;4842047;29;20221;-81
2022/01/21 12:41:28;;;;;;;1.97;0.90;;;;;;;1.19;54.56;100146.69;4843672;29;20232;-81
2022/01/21 12:44:09;;;;;;;3.80;0.80;;;;;;;1.06;56.87;100151.50;4847041;29;20200;-81
2022/01/21 12:46:39;;;;;;;2.93;0.80;;;;;;;1.00;57.29;100128.31;4832896;29;20292;-81
2022/01/21 12:49:34;;;;;;;2.57;0.87;;;;;;;1.13;58.67;100153.41;4828962;29;20193;-81
2022/01/21 12:52:44;;;;;;;3.37;1.00;;;;;;;1.12;57.31;100132.44;4841923;29;20220;-81